sensor_id;sensor_type;location;lat;lon;timestamp;pressure;altitude;pressure_sealevel;temperature;humidity
60970;BME280;46841;48.938;9.502;2024-01-15T00:00:23;97572.09;;;-3.23;78.44
60970;BME280;46841;48.938;9.502;2024-01-15T00:02:50;97569.41;;;-3.38;78.50
60970;BME280;46841;48.938;9.502;2024-01-15T00:05:15;97566.00;;;-3.37;78.75
60970;BME280;46841;48.938;9.502;2024-01-15T00:07:42;97574.03;;;-3.47;79.17
60970;BME280;46841;48.938;9.502;2024-01-15T00:10:08;97568.00;;;-3.46;79.76
60970;BME280;46841;48.938;9.502;2024-01-15T00:12:34;97562.72;;;-3.47;79.65
60970;BME280;46841;48.938;9.502;2024-01-15T00:15:01;97560.91;;;-3.48;79.67
60970;BME280;46841;48.938;9.502;2024-01-15T00:17:27;97561.22;;;-3.57;79.42
60970;BME280;46841;48.938;9.502;2024-01-15T00:19:52;97547.28;;;-3.57;79.04
60970;BME280;46841;48.938;9.502;2024-01-15T00:22:18;97550.19;;;-3.40;79.39
60970;BME280;46841;48.938;9.502;2024-01-15T00:24:44;97549.06;;;-3.43;78.57
60970;BME280;46841;48.938;9.502;2024-01-15T00:27:11;97555.50;;;-3.51;78.92
60970;BME280;46841;48.938;9.502;2024-01-15T00:29:37;97548.47;;;-3.52;79.41
60970;BME280;46841;48.938;9.502;2024-01-15T00:32:02;97544.16;;;-3.52;79.60
60970;BME280;46841;48.938;9.502;2024-01-15T00:34:29;97540.34;;;-3.44;79.36
60970;BME280;46841;48.938;9.502;2024-01-15T00:36:55;97543.63;;;-3.33;79.08
60970;BME280;46841;48.938;9.502;2024-01-15T00:39:21;97535.44;;;-3.39;79.40
60970;BME280;46841;48.938;9.502;2024-01-15T00:41:46;97540.53;;;-3.41;79.35
60970;BME280;46841;48.938;9.502;2024-01-15T00:44:12;97532.84;;;-3.52;79.37
60970;BME280;46841;48.938;9.502;2024-01-15T00:46:44;97539.69;;;-3.54;79.93
60970;BME280;46841;48.938;9.502;2024-01-15T00:49:14;97548.19;;;-3.44;80.25
60970;BME280;46841;48.938;9.502;2024-01-15T00:51:40;97532.91;;;-3.38;79.90
60970;BME280;46841;48.938;9.502;2024-01-15T00:54:05;97534.69;;;-3.37;78.89
60970;BME280;46841;48.938;9.502;2024-01-15T00:56:31;97536.31;;;-3.39;79.07
60970;BME280;46841;48.938;9.502;2024-01-15T00:58:56;97539.31;;;-3.32;79.03
60970;BME280;46841;48.938;9.502;2024-01-15T01:01:22;97535.81;;;-3.33;78.59
60970;BME280;46841;48.938;9.502;2024-01-15T01:03:48;97540.31;;;-3.30;78.51
60970;BME280;46841;48.938;9.502;2024-01-15T01:06:14;97537.81;;;-3.29;79.09
60970;BME280;46841;48.938;9.502;2024-01-15T01:08:39;97523.63;;;-3.19;78.82
60970;BME280;46841;48.938;9.502;2024-01-15T01:11:06;97523.16;;;-2.99;77.55
60970;BME280;46841;48.938;9.502;2024-01-15T01:13:32;97517.13;;;-2.98;77.40
60970;BME280;46841;48.938;9.502;2024-01-15T01:15:59;97510.59;;;-2.91;76.74
60970;BME280;46841;48.938;9.502;2024-01-15T01:18:26;97514.81;;;-2.78;76.25
60970;BME280;46841;48.938;9.502;2024-01-15T01:20:52;97512.03;;;-2.96;76.87
60970;BME280;46841;48.938;9.502;2024-01-15T01:23:18;97510.66;;;-2.90;77.18
60970;BME280;46841;48.938;9.502;2024-01-15T01:25:44;97509.56;;;-2.50;76.10
60970;BME280;46841;48.938;9.502;2024-01-15T01:28:10;97501.38;;;-2.56;76.22
60970;BME280;46841;48.938;9.502;2024-01-15T01:30:36;97507.06;;;-2.49;75.63
60970;BME280;46841;48.938;9.502;2024-01-15T01:33:01;97499.47;;;-2.59;76.13
60970;BME280;46841;48.938;9.502;2024-01-15T01:35:27;97508.09;;;-2.60;76.04
60970;BME280;46841;48.938;9.502;2024-01-15T01:37:52;97506.59;;;-2.56;76.05
60970;BME280;46841;48.938;9.502;2024-01-15T01:40:19;97502.88;;;-2.60;76.41
60970;BME280;46841;48.938;9.502;2024-01-15T01:42:46;97500.63;;;-2.69;77.11
60970;BME280;46841;48.938;9.502;2024-01-15T01:45:14;97499.72;;;-2.69;76.61
60970;BME280;46841;48.938;9.502;2024-01-15T01:47:40;97492.97;;;-2.66;76.52
60970;BME280;46841;48.938;9.502;2024-01-15T01:50:06;97508.84;;;-2.63;76.51
60970;BME280;46841;48.938;9.502;2024-01-15T01:52:32;97502.72;;;-2.63;76.21
60970;BME280;46841;48.938;9.502;2024-01-15T01:55:00;97494.06;;;-2.62;76.16
60970;BME280;46841;48.938;9.502;2024-01-15T01:57:30;97497.22;;;-2.53;76.04
60970;BME280;46841;48.938;9.502;2024-01-15T01:59:58;97509.47;;;-2.67;76.42
60970;BME280;46841;48.938;9.502;2024-01-15T02:02:25;97499.09;;;-2.65;76.48
60970;BME280;46841;48.938;9.502;2024-01-15T02:04:50;97502.53;;;-2.66;76.47
60970;BME280;46841;48.938;9.502;2024-01-15T02:07:16;97506.66;;;-2.70;76.64
60970;BME280;46841;48.938;9.502;2024-01-15T02:09:44;97500.91;;;-2.64;76.94
60970;BME280;46841;48.938;9.502;2024-01-15T02:12:10;97506.66;;;-2.70;76.96
60970;BME280;46841;48.938;9.502;2024-01-15T02:14:35;97508.09;;;-2.60;77.42
60970;BME280;46841;48.938;9.502;2024-01-15T02:17:01;97494.09;;;-2.47;76.96
60970;BME280;46841;48.938;9.502;2024-01-15T02:19:27;97496.22;;;-2.55;76.77
60970;BME280;46841;48.938;9.502;2024-01-15T02:21:52;97499.09;;;-2.65;77.56
60970;BME280;46841;48.938;9.502;2024-01-15T02:24:18;97492.56;;;-2.59;77.39
60970;BME280;46841;48.938;9.502;2024-01-15T02:26:43;97494.97;;;-2.62;77.50
60970;BME280;46841;48.938;9.502;2024-01-15T02:29:11;97500.41;;;-2.44;77.63
60970;BME280;46841;48.938;9.502;2024-01-15T02:31:37;97492.09;;;-2.51;77.59
60970;BME280;46841;48.938;9.502;2024-01-15T02:34:03;97497.84;;;-2.57;78.59
60970;BME280;46841;48.938;9.502;2024-01-15T02:36:29;97490.84;;;-2.58;78.31
60970;BME280;46841;48.938;9.502;2024-01-15T02:38:54;97506.50;;;-2.73;79.00
60970;BME280;46841;48.938;9.502;2024-01-15T02:41:20;97498.09;;;-2.82;79.42
60970;BME280;46841;48.938;9.502;2024-01-15T02:43:45;97492.78;;;-2.84;79.33
60970;BME280;46841;48.938;9.502;2024-01-15T02:46:11;97494.19;;;-2.89;79.88
60970;BME280;46841;48.938;9.502;2024-01-15T02:48:38;97498.88;;;-2.83;80.12
60970;BME280;46841;48.938;9.502;2024-01-15T02:51:03;97496.75;;;-2.75;80.31
60970;BME280;46841;48.938;9.502;2024-01-15T02:53:30;97496.19;;;-2.85;80.42
60970;BME280;46841;48.938;9.502;2024-01-15T02:55:55;97487.66;;;-2.82;80.43
60970;BME280;46841;48.938;9.502;2024-01-15T02:58:24;97488.50;;;-2.68;80.43
60970;BME280;46841;48.938;9.502;2024-01-15T03:00:49;97485.88;;;-2.68;80.12
60970;BME280;46841;48.938;9.502;2024-01-15T03:03:15;97482.34;;;-2.69;79.75
60970;BME280;46841;48.938;9.502;2024-01-15T03:05:40;97488.03;;;-2.46;79.36
60970;BME280;46841;48.938;9.502;2024-01-15T03:08:06;97481.44;;;-2.69;79.75
60970;BME280;46841;48.938;9.502;2024-01-15T03:10:31;97478.69;;;-2.72;80.01
60970;BME280;46841;48.938;9.502;2024-01-15T03:12:57;97474.78;;;-2.64;79.98
60970;BME280;46841;48.938;9.502;2024-01-15T03:15:23;97481.66;;;-2.66;80.49
60970;BME280;46841;48.938;9.502;2024-01-15T03:17:48;97475.94;;;-2.74;80.44
60970;BME280;46841;48.938;9.502;2024-01-15T03:20:14;97476.84;;;-2.73;80.17
60970;BME280;46841;48.938;9.502;2024-01-15T03:22:41;97476.75;;;-2.75;80.30
60970;BME280;46841;48.938;9.502;2024-01-15T03:25:07;97473.53;;;-2.56;80.69
60970;BME280;46841;48.938;9.502;2024-01-15T03:27:33;97472.38;;;-2.46;79.77
60970;BME280;46841;48.938;9.502;2024-01-15T03:29:58;97474.97;;;-2.61;80.21
60970;BME280;46841;48.938;9.502;2024-01-15T03:32:25;97465.16;;;-2.65;80.37
60970;BME280;46841;48.938;9.502;2024-01-15T03:34:51;97470.75;;;-2.59;80.44
60970;BME280;46841;48.938;9.502;2024-01-15T03:37:17;97463.19;;;-2.54;80.06
60970;BME280;46841;48.938;9.502;2024-01-15T03:39:43;97459.78;;;-2.53;80.97
60970;BME280;46841;48.938;9.502;2024-01-15T03:42:08;97470.38;;;-2.50;80.76
60970;BME280;46841;48.938;9.502;2024-01-15T03:44:34;97462.75;;;-2.62;81.07
60970;BME280;46841;48.938;9.502;2024-01-15T03:46:59;97462.47;;;-2.67;80.66
60970;BME280;46841;48.938;9.502;2024-01-15T03:49:24;97457.97;;;-2.54;80.83
60970;BME280;46841;48.938;9.502;2024-01-15T03:51:50;97458.97;;;-2.52;81.23
60970;BME280;46841;48.938;9.502;2024-01-15T03:54:15;97464.47;;;-2.48;81.39
60970;BME280;46841;48.938;9.502;2024-01-15T03:56:41;97468.25;;;-2.43;81.00
60970;BME280;46841;48.938;9.502;2024-01-15T03:59:06;97459.59;;;-2.42;81.07
60970;BME280;46841;48.938;9.502;2024-01-15T04:01:32;97454.16;;;-2.45;81.15
60970;BME280;46841;48.938;9.502;2024-01-15T04:03:59;97453.38;;;-2.44;80.94
60970;BME280;46841;48.938;9.502;2024-01-15T04:06:25;97450.84;;;-2.42;80.70
60970;BME280;46841;48.938;9.502;2024-01-15T04:08:50;97445.56;;;-2.44;80.57
60970;BME280;46841;48.938;9.502;2024-01-15T04:11:16;97440.47;;;-2.26;80.71
60970;BME280;46841;48.938;9.502;2024-01-15T04:13:41;97436.72;;;-2.46;80.36
60970;BME280;46841;48.938;9.502;2024-01-15T04:16:08;97437.00;;;-2.56;81.32
60970;BME280;46841;48.938;9.502;2024-01-15T04:18:34;97431.56;;;-2.59;81.39
60970;BME280;46841;48.938;9.502;2024-01-15T04:20:59;97431.41;;;-2.62;81.97
60970;BME280;46841;48.938;9.502;2024-01-15T04:23:26;97429.16;;;-2.56;82.45
60970;BME280;46841;48.938;9.502;2024-01-15T04:25:52;97428.47;;;-2.68;82.29
60970;BME280;46841;48.938;9.502;2024-01-15T04:28:19;97431.69;;;-2.72;82.28
60970;BME280;46841;48.938;9.502;2024-01-15T04:30:44;97426.75;;;-2.68;82.51
60970;BME280;46841;48.938;9.502;2024-01-15T04:33:10;97421.97;;;-2.75;83.12
60970;BME280;46841;48.938;9.502;2024-01-15T04:35:37;97422.97;;;-2.73;82.63
60970;BME280;46841;48.938;9.502;2024-01-15T04:38:03;97417.75;;;-2.73;82.80
60970;BME280;46841;48.938;9.502;2024-01-15T04:40:29;97420.34;;;-2.73;82.53
60970;BME280;46841;48.938;9.502;2024-01-15T04:42:54;97429.72;;;-2.76;82.95
60970;BME280;46841;48.938;9.502;2024-01-15T04:45:20;97427.44;;;-2.70;82.93
60970;BME280;46841;48.938;9.502;2024-01-15T04:47:48;97422.56;;;-2.64;82.58
60970;BME280;46841;48.938;9.502;2024-01-15T04:50:14;97420.09;;;-2.63;82.72
60970;BME280;46841;48.938;9.502;2024-01-15T04:52:40;97426.09;;;-2.64;82.58
60970;BME280;46841;48.938;9.502;2024-01-15T04:55:05;97430.53;;;-2.63;82.49
60970;BME280;46841;48.938;9.502;2024-01-15T04:57:31;97443.09;;;-2.70;82.44
60970;BME280;46841;48.938;9.502;2024-01-15T04:59:57;97430.31;;;-2.51;82.16
60970;BME280;46841;48.938;9.502;2024-01-15T05:02:23;97426.38;;;-2.44;81.88
60970;BME280;46841;48.938;9.502;2024-01-15T05:04:48;97424.28;;;-2.50;81.81
60970;BME280;46841;48.938;9.502;2024-01-15T05:07:14;97424.75;;;-2.57;82.75
60970;BME280;46841;48.938;9.502;2024-01-15T05:09:39;97427.16;;;-2.60;82.82
60970;BME280;46841;48.938;9.502;2024-01-15T05:12:05;97425.72;;;-2.70;82.83
60970;BME280;46841;48.938;9.502;2024-01-15T05:14:30;97424.22;;;-2.66;83.00
60970;BME280;46841;48.938;9.502;2024-01-15T05:16:56;97426.19;;;-2.62;83.26
60970;BME280;46841;48.938;9.502;2024-01-15T05:19:21;97423.41;;;-2.65;82.82
60970;BME280;46841;48.938;9.502;2024-01-15T05:21:46;97418.38;;;-2.62;83.26
60970;BME280;46841;48.938;9.502;2024-01-15T05:24:13;97414.94;;;-2.61;82.79
60970;BME280;46841;48.938;9.502;2024-01-15T05:26:39;97411.41;;;-2.47;82.48
60970;BME280;46841;48.938;9.502;2024-01-15T05:29:04;97417.00;;;-2.55;82.20
60970;BME280;46841;48.938;9.502;2024-01-15T05:31:30;97415.41;;;-2.53;82.45
60970;BME280;46841;48.938;9.502;2024-01-15T05:33:55;97412.69;;;-2.55;82.50
60970;BME280;46841;48.938;9.502;2024-01-15T05:36:21;97412.69;;;-2.55;82.68
60970;BME280;46841;48.938;9.502;2024-01-15T05:38:47;97405.56;;;-2.43;82.56
60970;BME280;46841;48.938;9.502;2024-01-15T05:41:13;97403.59;;;-2.47;82.61
60970;BME280;46841;48.938;9.502;2024-01-15T05:43:40;97400.16;;;-2.46;82.20
60970;BME280;46841;48.938;9.502;2024-01-15T05:46:05;97404.75;;;-2.42;82.33
60970;BME280;46841;48.938;9.502;2024-01-15T05:48:31;97403.09;;;-2.40;82.43
60970;BME280;46841;48.938;9.502;2024-01-15T05:50:56;97399.34;;;-2.45;82.58
60970;BME280;46841;48.938;9.502;2024-01-15T05:53:22;97401.91;;;-2.30;82.58
60970;BME280;46841;48.938;9.502;2024-01-15T05:55:47;97395.72;;;-2.32;81.82
60970;BME280;46841;48.938;9.502;2024-01-15T05:58:21;97396.19;;;-2.24;81.80
60970;BME280;46841;48.938;9.502;2024-01-15T06:00:50;97397.84;;;-2.10;81.23
60970;BME280;46841;48.938;9.502;2024-01-15T06:03:18;97397.66;;;-2.13;81.44
60970;BME280;46841;48.938;9.502;2024-01-15T06:05:44;97390.94;;;-1.93;80.81
60970;BME280;46841;48.938;9.502;2024-01-15T06:08:09;97392.97;;;-2.04;80.90
60970;BME280;46841;48.938;9.502;2024-01-15T06:10:35;97392.75;;;-2.23;81.80
60970;BME280;46841;48.938;9.502;2024-01-15T06:13:04;97397.41;;;-2.18;81.80
60970;BME280;46841;48.938;9.502;2024-01-15T06:15:32;97392.41;;;-2.29;82.07
60970;BME280;46841;48.938;9.502;2024-01-15T06:18:00;97394.34;;;-2.25;82.06
60970;BME280;46841;48.938;9.502;2024-01-15T06:20:25;97396.25;;;-2.23;82.22
60970;BME280;46841;48.938;9.502;2024-01-15T06:22:52;97386.34;;;-2.28;82.64
60970;BME280;46841;48.938;9.502;2024-01-15T06:25:18;97393.03;;;-2.34;82.69
60970;BME280;46841;48.938;9.502;2024-01-15T06:27:44;97397.78;;;-2.26;82.55
60970;BME280;46841;48.938;9.502;2024-01-15T06:30:10;97382.75;;;-2.30;82.58
60970;BME280;46841;48.938;9.502;2024-01-15T06:32:36;97385.28;;;-2.32;82.93
60970;BME280;46841;48.938;9.502;2024-01-15T06:35:20;97376.00;;;-2.27;82.93
60970;BME280;46841;48.938;9.502;2024-01-15T06:37:48;97372.56;;;-2.26;82.68
60970;BME280;46841;48.938;9.502;2024-01-15T06:40:17;97371.31;;;-2.33;83.22
60970;BME280;46841;48.938;9.502;2024-01-15T06:42:45;97372.75;;;-2.23;83.14
60970;BME280;46841;48.938;9.502;2024-01-15T06:45:12;97373.00;;;-2.18;82.83
60970;BME280;46841;48.938;9.502;2024-01-15T06:47:43;97378.88;;;-2.06;82.21
60970;BME280;46841;48.938;9.502;2024-01-15T06:50:16;97375.13;;;-2.11;82.51
60970;BME280;46841;48.938;9.502;2024-01-15T06:52:42;97379.41;;;-1.97;82.40
60970;BME280;46841;48.938;9.502;2024-01-15T06:55:08;97382.28;;;-1.92;81.69
60970;BME280;46841;48.938;9.502;2024-01-15T06:57:45;97377.72;;;-1.96;81.84
60970;BME280;46841;48.938;9.502;2024-01-15T07:00:14;97377.72;;;-1.96;81.87
60970;BME280;46841;48.938;9.502;2024-01-15T07:02:39;97375.50;;;-1.89;81.62
60970;BME280;46841;48.938;9.502;2024-01-15T07:05:05;97386.72;;;-1.91;82.09
60970;BME280;46841;48.938;9.502;2024-01-15T07:07:32;97385.31;;;-1.85;81.93
60970;BME280;46841;48.938;9.502;2024-01-15T07:09:57;97380.75;;;-1.89;81.57
60970;BME280;46841;48.938;9.502;2024-01-15T07:12:23;97378.56;;;-1.81;81.29
60970;BME280;46841;48.938;9.502;2024-01-15T07:14:49;97387.69;;;-1.89;81.56
60970;BME280;46841;48.938;9.502;2024-01-15T07:17:15;97383.03;;;-1.95;82.53
60970;BME280;46841;48.938;9.502;2024-01-15T07:19:40;97377.84;;;-2.10;82.78
60970;BME280;46841;48.938;9.502;2024-01-15T07:22:06;97376.38;;;-2.04;82.31
60970;BME280;46841;48.938;9.502;2024-01-15T07:24:36;97376.47;;;-2.03;81.65
60970;BME280;46841;48.938;9.502;2024-01-15T07:27:02;97377.66;;;-1.82;81.89
60970;BME280;46841;48.938;9.502;2024-01-15T07:29:32;97372.50;;;-1.80;81.44
60970;BME280;46841;48.938;9.502;2024-01-15T07:32:03;97378.94;;;-1.90;82.10
60970;BME280;46841;48.938;9.502;2024-01-15T07:34:32;97370.03;;;-1.93;82.28
60970;BME280;46841;48.938;9.502;2024-01-15T07:36:58;97376.25;;;-1.91;82.04
60970;BME280;46841;48.938;9.502;2024-01-15T07:39:26;97386.97;;;-1.87;82.11
60970;BME280;46841;48.938;9.502;2024-01-15T07:41:54;97388.31;;;-1.93;82.08
60970;BME280;46841;48.938;9.502;2024-01-15T07:44:37;97390.94;;;-1.93;82.17
60970;BME280;46841;48.938;9.502;2024-01-15T07:47:03;97385.13;;;-1.88;80.95
60970;BME280;46841;48.938;9.502;2024-01-15T07:49:32;97385.50;;;-1.82;81.54
60970;BME280;46841;48.938;9.502;2024-01-15T07:52:00;97380.28;;;-1.82;80.50
60970;BME280;46841;48.938;9.502;2024-01-15T07:54:31;97380.41;;;-1.78;80.85
60970;BME280;46841;48.938;9.502;2024-01-15T07:57:03;97390.28;;;-1.58;80.76
60970;BME280;46841;48.938;9.502;2024-01-15T07:59:49;97390.66;;;-1.67;80.94
60970;BME280;46841;48.938;9.502;2024-01-15T08:02:20;97384.03;;;-1.60;80.77
60970;BME280;46841;48.938;9.502;2024-01-15T08:04:49;97382.44;;;-1.58;81.02
60970;BME280;46841;48.938;9.502;2024-01-15T08:07:25;97383.97;;;-1.45;81.15
60970;BME280;46841;48.938;9.502;2024-01-15T08:09:54;97380.22;;;-1.34;80.35
60970;BME280;46841;48.938;9.502;2024-01-15T08:12:19;97379.41;;;-1.33;80.36
60970;BME280;46841;48.938;9.502;2024-01-15T08:14:45;97378.66;;;-1.31;80.49
60970;BME280;46841;48.938;9.502;2024-01-15T08:17:13;97386.41;;;-1.16;79.92
60970;BME280;46841;48.938;9.502;2024-01-15T08:19:39;97373.50;;;-1.29;80.10
60970;BME280;46841;48.938;9.502;2024-01-15T08:22:07;97378.47;;;-1.17;80.21
60970;BME280;46841;48.938;9.502;2024-01-15T08:24:34;97381.34;;;-1.13;80.12
60970;BME280;46841;48.938;9.502;2024-01-15T08:27:14;97375.22;;;-1.13;80.13
60970;BME280;46841;48.938;9.502;2024-01-15T08:29:43;97375.50;;;-1.07;80.09
60970;BME280;46841;48.938;9.502;2024-01-15T08:32:10;97383.13;;;-1.12;79.70
60970;BME280;46841;48.938;9.502;2024-01-15T08:34:40;97384.03;;;-1.11;79.49
60970;BME280;46841;48.938;9.502;2024-01-15T08:37:08;97379.84;;;-1.08;79.27
60970;BME280;46841;48.938;9.502;2024-01-15T08:39:34;97371.28;;;-1.05;79.01
60970;BME280;46841;48.938;9.502;2024-01-15T08:42:01;97371.19;;;-1.07;79.46
60970;BME280;46841;48.938;9.502;2024-01-15T08:44:28;97372.25;;;-1.03;79.02
60970;BME280;46841;48.938;9.502;2024-01-15T08:46:53;97377.47;;;-1.03;77.91
60970;BME280;46841;48.938;9.502;2024-01-15T08:49:19;97371.34;;;-1.04;78.28
60970;BME280;46841;48.938;9.502;2024-01-15T08:51:44;97373.03;;;-0.88;78.02
60970;BME280;46841;48.938;9.502;2024-01-15T08:54:10;97372.31;;;-0.67;77.73
60970;BME280;46841;48.938;9.502;2024-01-15T08:56:38;97366.97;;;-0.53;77.38
60970;BME280;46841;48.938;9.502;2024-01-15T08:59:05;97373.22;;;-0.49;76.45
60970;BME280;46841;48.938;9.502;2024-01-15T09:01:30;97367.84;;;-0.34;77.39
60970;BME280;46841;48.938;9.502;2024-01-15T09:03:56;97371.38;;;-0.34;77.63
60970;BME280;46841;48.938;9.502;2024-01-15T09:06:21;97370.63;;;-0.13;77.10
60970;BME280;46841;48.938;9.502;2024-01-15T09:08:47;97367.25;;;-0.11;76.71
60970;BME280;46841;48.938;9.502;2024-01-15T09:11:12;97371.53;;;-0.13;77.31
60970;BME280;46841;48.938;9.502;2024-01-15T09:13:38;97375.13;;;-0.11;77.40
60970;BME280;46841;48.938;9.502;2024-01-15T09:16:04;97367.69;;;-0.19;77.19
60970;BME280;46841;48.938;9.502;2024-01-15T09:18:30;97363.91;;;-0.08;77.15
60970;BME280;46841;48.938;9.502;2024-01-15T09:20:55;97348.66;;;0.03;77.07
60970;BME280;46841;48.938;9.502;2024-01-15T09:23:21;97345.91;;;0.19;75.96
60970;BME280;46841;48.938;9.502;2024-01-15T09:25:47;97350.44;;;0.21;76.06
60970;BME280;46841;48.938;9.502;2024-01-15T09:28:15;97351.03;;;0.16;76.25
60970;BME280;46841;48.938;9.502;2024-01-15T09:30:40;97350.28;;;0.18;76.11
60970;BME280;46841;48.938;9.502;2024-01-15T09:33:07;97348.75;;;0.23;76.13
60970;BME280;46841;48.938;9.502;2024-01-15T09:35:32;97347.75;;;0.20;76.41
60970;BME280;46841;48.938;9.502;2024-01-15T09:37:58;97341.72;;;0.22;75.22
60970;BME280;46841;48.938;9.502;2024-01-15T09:40:23;97337.69;;;0.29;74.90
60970;BME280;46841;48.938;9.502;2024-01-15T09:42:49;97343.25;;;0.37;74.82
60970;BME280;46841;48.938;9.502;2024-01-15T09:45:16;97340.31;;;0.48;73.87
60970;BME280;46841;48.938;9.502;2024-01-15T09:48:05;97336.44;;;0.60;72.99
60970;BME280;46841;48.938;9.502;2024-01-15T09:50:33;97330.91;;;0.73;72.91
60970;BME280;46841;48.938;9.502;2024-01-15T09:53:13;97325.44;;;0.88;71.85
60970;BME280;46841;48.938;9.502;2024-01-15T09:55:44;97321.59;;;1.00;70.92
60970;BME280;46841;48.938;9.502;2024-01-15T09:58:16;97321.50;;;1.18;69.36
60970;BME280;46841;48.938;9.502;2024-01-15T10:00:44;97316.41;;;1.21;68.59
60970;BME280;46841;48.938;9.502;2024-01-15T10:03:11;97322.00;;;1.10;68.98
60970;BME280;46841;48.938;9.502;2024-01-15T10:05:39;97316.56;;;1.05;69.09
60970;BME280;46841;48.938;9.502;2024-01-15T10:08:05;97313.56;;;0.96;68.45
60970;BME280;46841;48.938;9.502;2024-01-15T10:10:47;97306.94;;;0.85;69.57
60970;BME280;46841;48.938;9.502;2024-01-15T10:13:19;97319.56;;;0.93;68.55
60970;BME280;46841;48.938;9.502;2024-01-15T10:15:47;97308.63;;;0.44;69.21
60970;BME280;46841;48.938;9.502;2024-01-15T10:18:17;97308.06;;;0.32;70.14
60970;BME280;46841;48.938;9.502;2024-01-15T10:20:46;97300.53;;;0.59;70.48
60970;BME280;46841;48.938;9.502;2024-01-15T10:23:14;97293.28;;;0.72;70.10
60970;BME280;46841;48.938;9.502;2024-01-15T10:25:42;97288.81;;;0.91;69.68
60970;BME280;46841;48.938;9.502;2024-01-15T10:28:07;97288.25;;;1.19;67.84
60970;BME280;46841;48.938;9.502;2024-01-15T10:30:34;97282.19;;;1.20;67.69
60970;BME280;46841;48.938;9.502;2024-01-15T10:33:01;97281.78;;;1.32;68.10
60970;BME280;46841;48.938;9.502;2024-01-15T10:35:32;97271.50;;;1.15;67.96
60970;BME280;46841;48.938;9.502;2024-01-15T10:37:58;97278.28;;;0.70;68.64
60970;BME280;46841;48.938;9.502;2024-01-15T10:40:25;97276.41;;;0.87;68.36
60970;BME280;46841;48.938;9.502;2024-01-15T10:42:51;97268.63;;;0.90;67.93
60970;BME280;46841;48.938;9.502;2024-01-15T10:45:17;97263.59;;;0.94;65.25
60970;BME280;46841;48.938;9.502;2024-01-15T10:47:45;97267.94;;;0.94;65.38
60970;BME280;46841;48.938;9.502;2024-01-15T10:50:11;97262.00;;;0.98;65.53
60970;BME280;46841;48.938;9.502;2024-01-15T10:52:40;97262.03;;;0.99;65.29
60970;BME280;46841;48.938;9.502;2024-01-15T10:55:07;97259.31;;;0.96;65.10
60970;BME280;46841;48.938;9.502;2024-01-15T10:57:39;97261.53;;;1.08;65.16
60970;BME280;46841;48.938;9.502;2024-01-15T11:00:05;97253.31;;;1.00;65.31
60970;BME280;46841;48.938;9.502;2024-01-15T11:02:32;97252.38;;;1.19;64.59
60970;BME280;46841;48.938;9.502;2024-01-15T11:05:00;97254.56;;;1.09;65.32
60970;BME280;46841;48.938;9.502;2024-01-15T11:07:26;97249.75;;;1.19;65.24
60970;BME280;46841;48.938;9.502;2024-01-15T11:09:52;97260.91;;;1.14;65.86
60970;BME280;46841;48.938;9.502;2024-01-15T11:12:17;97258.34;;;1.15;65.78
60970;BME280;46841;48.938;9.502;2024-01-15T11:14:47;97260.41;;;1.01;65.84
60970;BME280;46841;48.938;9.502;2024-01-15T11:17:14;97267.94;;;0.94;67.61
60970;BME280;46841;48.938;9.502;2024-01-15T11:19:44;97263.13;;;0.84;68.99
60970;BME280;46841;48.938;9.502;2024-01-15T11:24:55;97269.81;;;0.37;74.63
60970;BME280;46841;48.938;9.502;2024-01-15T11:27:41;97260.53;;;0.24;76.31
60970;BME280;46841;48.938;9.502;2024-01-15T11:30:11;97256.16;;;0.24;77.81
60970;BME280;46841;48.938;9.502;2024-01-15T11:32:37;97246.06;;;0.14;79.25
60970;BME280;46841;48.938;9.502;2024-01-15T11:35:07;97246.25;;;-0.01;80.59
60970;BME280;46841;48.938;9.502;2024-01-15T11:42:58;97227.34;;;-0.32;84.32
60970;BME280;46841;48.938;9.502;2024-01-15T11:45:23;97234.81;;;-0.03;83.60
60970;BME280;46841;48.938;9.502;2024-01-15T11:50:21;97231.63;;;-0.15;83.59
60970;BME280;46841;48.938;9.502;2024-01-15T11:53:00;97242.31;;;-0.10;83.89
60970;BME280;46841;48.938;9.502;2024-01-15T11:55:33;97238.19;;;-0.05;83.28
60970;BME280;46841;48.938;9.502;2024-01-15T11:58:01;97233.16;;;-0.01;83.75
60970;BME280;46841;48.938;9.502;2024-01-15T12:00:29;97233.38;;;0.04;83.77
60970;BME280;46841;48.938;9.502;2024-01-15T12:02:55;97227.09;;;0.01;84.32
60970;BME280;46841;48.938;9.502;2024-01-15T12:05:23;97217.53;;;0.01;84.17
60970;BME280;46841;48.938;9.502;2024-01-15T12:07:49;97221.56;;;-0.06;84.83
60970;BME280;46841;48.938;9.502;2024-01-15T12:10:19;97226.91;;;-0.04;84.30
60970;BME280;46841;48.938;9.502;2024-01-15T12:12:54;97225.91;;;-0.06;84.13
60970;BME280;46841;48.938;9.502;2024-01-15T12:15:25;97221.66;;;-0.04;84.16
60970;BME280;46841;48.938;9.502;2024-01-15T12:17:55;97220.63;;;0.12;84.07
60970;BME280;46841;48.938;9.502;2024-01-15T12:20:21;97225.59;;;0.06;84.28
60970;BME280;46841;48.938;9.502;2024-01-15T12:22:46;97225.50;;;0.04;83.61
60970;BME280;46841;48.938;9.502;2024-01-15T12:25:12;97224.59;;;0.04;84.46
60970;BME280;46841;48.938;9.502;2024-01-15T12:27:37;97228.53;;;0.13;84.29
60970;BME280;46841;48.938;9.502;2024-01-15T12:30:05;97230.63;;;0.01;84.58
60970;BME280;46841;48.938;9.502;2024-01-15T12:32:30;97222.47;;;-0.05;84.71
60970;BME280;46841;48.938;9.502;2024-01-15T12:34:56;97223.69;;;-0.16;85.03
60970;BME280;46841;48.938;9.502;2024-01-15T12:37:23;97222.97;;;-0.14;86.04
60970;BME280;46841;48.938;9.502;2024-01-15T12:39:52;97225.44;;;-0.17;86.55
60970;BME280;46841;48.938;9.502;2024-01-15T12:42:22;97231.28;;;-0.22;86.97
60970;BME280;46841;48.938;9.502;2024-01-15T12:44:48;97231.06;;;-0.27;87.17
60970;BME280;46841;48.938;9.502;2024-01-15T12:47:13;97231.06;;;-0.27;87.21
60970;BME280;46841;48.938;9.502;2024-01-15T12:49:40;97227.41;;;-0.31;87.32
60970;BME280;46841;48.938;9.502;2024-01-15T12:52:09;97228.31;;;-0.30;87.48
60970;BME280;46841;48.938;9.502;2024-01-15T12:54:35;97233.63;;;-0.29;87.57
60970;BME280;46841;48.938;9.502;2024-01-15T12:57:00;97232.59;;;-0.32;87.58
60970;BME280;46841;48.938;9.502;2024-01-15T12:59:27;97235.81;;;-0.38;88.03
60970;BME280;46841;48.938;9.502;2024-01-15T13:01:54;97239.47;;;-0.34;88.47
60970;BME280;46841;48.938;9.502;2024-01-15T13:04:25;97235.31;;;-0.29;88.43
60970;BME280;46841;48.938;9.502;2024-01-15T13:06:57;97244.78;;;-0.33;88.12
60970;BME280;46841;48.938;9.502;2024-01-15T13:09:26;97238.16;;;-0.24;88.17
60970;BME280;46841;48.938;9.502;2024-01-15T13:11:58;97239.56;;;-0.33;88.62